sensor_id;sensor_type;location;lat;lon;timestamp;P1;durP1;ratioP1;P2;durP2;ratioP2
34876;SDS011;21086;44.780;17.194;2023-12-20T00:02:16;144.27;;;66.25;;
34876;SDS011;21086;44.780;17.194;2023-12-20T00:04:43;127.05;;;65.22;;
34876;SDS011;21086;44.780;17.194;2023-12-20T00:07:10;125.72;;;63.13;;
34876;SDS011;21086;44.780;17.194;2023-12-20T00:09:37;130.18;;;62.97;;
34876;SDS011;21086;44.780;17.194;2023-12-20T00:12:04;133.65;;;62.00;;
34876;SDS011;21086;44.780;17.194;2023-12-20T00:14:32;155.32;;;66.65;;
34876;SDS011;21086;44.780;17.194;2023-12-20T00:16:58;158.85;;;73.68;;
34876;SDS011;21086;44.780;17.194;2023-12-20T00:19:25;162.30;;;74.70;;
34876;SDS011;21086;44.780;17.194;2023-12-20T00:21:52;156.43;;;72.88;;
34876;SDS011;21086;44.780;17.194;2023-12-20T00:24:20;169.73;;;79.65;;
34876;SDS011;21086;44.780;17.194;2023-12-20T00:26:47;186.93;;;87.32;;
34876;SDS011;21086;44.780;17.194;2023-12-20T00:29:13;186.10;;;85.30;;
34876;SDS011;21086;44.780;17.194;2023-12-20T00:31:40;180.50;;;85.93;;
34876;SDS011;21086;44.780;17.194;2023-12-20T00:34:07;156.38;;;74.03;;
34876;SDS011;21086;44.780;17.194;2023-12-20T00:36:35;163.45;;;77.03;;
34876;SDS011;21086;44.780;17.194;2023-12-20T00:39:03;157.85;;;75.03;;
34876;SDS011;21086;44.780;17.194;2023-12-20T00:41:30;159.48;;;77.93;;
34876;SDS011;21086;44.780;17.194;2023-12-20T00:43:57;170.30;;;79.97;;
34876;SDS011;21086;44.780;17.194;2023-12-20T00:46:24;169.77;;;75.72;;
34876;SDS011;21086;44.780;17.194;2023-12-20T00:48:51;172.43;;;83.38;;
34876;SDS011;21086;44.780;17.194;2023-12-20T00:51:18;176.65;;;84.20;;
34876;SDS011;21086;44.780;17.194;2023-12-20T00:53:45;182.60;;;87.78;;
34876;SDS011;21086;44.780;17.194;2023-12-20T00:56:18;175.13;;;80.55;;
34876;SDS011;21086;44.780;17.194;2023-12-20T00:58:45;164.20;;;75.45;;
34876;SDS011;21086;44.780;17.194;2023-12-20T01:01:12;157.30;;;75.20;;
34876;SDS011;21086;44.780;17.194;2023-12-20T01:03:39;176.27;;;79.95;;
34876;SDS011;21086;44.780;17.194;2023-12-20T01:06:06;154.27;;;76.18;;
34876;SDS011;21086;44.780;17.194;2023-12-20T01:08:33;168.05;;;75.95;;
34876;SDS011;21086;44.780;17.194;2023-12-20T01:11:03;175.32;;;78.90;;
34876;SDS011;21086;44.780;17.194;2023-12-20T01:13:31;177.82;;;82.80;;
34876;SDS011;21086;44.780;17.194;2023-12-20T01:15:58;181.88;;;84.22;;
34876;SDS011;21086;44.780;17.194;2023-12-20T01:18:26;168.85;;;83.10;;
34876;SDS011;21086;44.780;17.194;2023-12-20T01:20:52;169.85;;;81.00;;
34876;SDS011;21086;44.780;17.194;2023-12-20T01:23:19;173.60;;;81.03;;
34876;SDS011;21086;44.780;17.194;2023-12-20T01:25:46;170.75;;;80.20;;
34876;SDS011;21086;44.780;17.194;2023-12-20T01:28:14;172.90;;;78.03;;
34876;SDS011;21086;44.780;17.194;2023-12-20T01:30:41;163.05;;;74.18;;
34876;SDS011;21086;44.780;17.194;2023-12-20T01:33:08;139.30;;;70.10;;
34876;SDS011;21086;44.780;17.194;2023-12-20T01:35:35;147.23;;;69.80;;
34876;SDS011;21086;44.780;17.194;2023-12-20T01:38:03;144.32;;;70.32;;
34876;SDS011;21086;44.780;17.194;2023-12-20T01:40:30;136.30;;;66.78;;
34876;SDS011;21086;44.780;17.194;2023-12-20T01:43:01;144.50;;;68.70;;
34876;SDS011;21086;44.780;17.194;2023-12-20T01:45:28;128.40;;;65.30;;
34876;SDS011;21086;44.780;17.194;2023-12-20T01:47:56;123.10;;;61.75;;
34876;SDS011;21086;44.780;17.194;2023-12-20T01:50:25;128.82;;;63.38;;
34876;SDS011;21086;44.780;17.194;2023-12-20T01:52:53;134.57;;;64.30;;
34876;SDS011;21086;44.780;17.194;2023-12-20T01:55:24;125.78;;;62.80;;
34876;SDS011;21086;44.780;17.194;2023-12-20T01:57:52;148.70;;;71.85;;
34876;SDS011;21086;44.780;17.194;2023-12-20T02:00:19;150.50;;;71.85;;
34876;SDS011;21086;44.780;17.194;2023-12-20T02:02:50;179.95;;;86.20;;
34876;SDS011;21086;44.780;17.194;2023-12-20T02:05:19;206.48;;;95.35;;
34876;SDS011;21086;44.780;17.194;2023-12-20T02:07:46;171.93;;;83.05;;
34876;SDS011;21086;44.780;17.194;2023-12-20T02:10:14;177.30;;;84.57;;
34876;SDS011;21086;44.780;17.194;2023-12-20T02:12:42;192.00;;;91.20;;
34876;SDS011;21086;44.780;17.194;2023-12-20T02:15:09;162.60;;;77.93;;
34876;SDS011;21086;44.780;17.194;2023-12-20T02:17:36;132.57;;;68.13;;
34876;SDS011;21086;44.780;17.194;2023-12-20T02:20:06;134.90;;;67.45;;
34876;SDS011;21086;44.780;17.194;2023-12-20T02:22:34;135.65;;;65.32;;
34876;SDS011;21086;44.780;17.194;2023-12-20T02:25:01;148.55;;;67.60;;
34876;SDS011;21086;44.780;17.194;2023-12-20T02:27:28;127.25;;;63.83;;
34876;SDS011;21086;44.780;17.194;2023-12-20T02:29:56;130.80;;;64.15;;
34876;SDS011;21086;44.780;17.194;2023-12-20T02:32:23;136.70;;;70.28;;
34876;SDS011;21086;44.780;17.194;2023-12-20T02:34:55;139.82;;;68.82;;
34876;SDS011;21086;44.780;17.194;2023-12-20T02:37:23;157.50;;;73.88;;
34876;SDS011;21086;44.780;17.194;2023-12-20T02:39:50;144.55;;;73.13;;
34876;SDS011;21086;44.780;17.194;2023-12-20T02:42:17;170.35;;;82.75;;
34876;SDS011;21086;44.780;17.194;2023-12-20T02:44:44;182.20;;;86.57;;
34876;SDS011;21086;44.780;17.194;2023-12-20T02:47:11;171.23;;;82.97;;
34876;SDS011;21086;44.780;17.194;2023-12-20T02:49:38;157.82;;;78.93;;
34876;SDS011;21086;44.780;17.194;2023-12-20T02:52:05;149.98;;;75.25;;
34876;SDS011;21086;44.780;17.194;2023-12-20T02:54:32;161.00;;;78.00;;
34876;SDS011;21086;44.780;17.194;2023-12-20T02:56:59;158.15;;;76.38;;
34876;SDS011;21086;44.780;17.194;2023-12-20T02:59:26;158.38;;;77.13;;
34876;SDS011;21086;44.780;17.194;2023-12-20T03:01:53;159.07;;;75.25;;
34876;SDS011;21086;44.780;17.194;2023-12-20T03:04:20;158.93;;;74.85;;
34876;SDS011;21086;44.780;17.194;2023-12-20T03:06:47;149.52;;;74.70;;
34876;SDS011;21086;44.780;17.194;2023-12-20T03:09:14;157.82;;;76.20;;
34876;SDS011;21086;44.780;17.194;2023-12-20T03:11:41;176.32;;;80.10;;
34876;SDS011;21086;44.780;17.194;2023-12-20T03:14:08;156.68;;;75.75;;
34876;SDS011;21086;44.780;17.194;2023-12-20T03:16:35;161.55;;;75.75;;
34876;SDS011;21086;44.780;17.194;2023-12-20T03:19:02;154.55;;;74.55;;
34876;SDS011;21086;44.780;17.194;2023-12-20T03:21:29;143.82;;;70.22;;
34876;SDS011;21086;44.780;17.194;2023-12-20T03:23:56;157.18;;;71.45;;
34876;SDS011;21086;44.780;17.194;2023-12-20T03:26:23;139.88;;;66.53;;
34876;SDS011;21086;44.780;17.194;2023-12-20T03:28:50;140.13;;;65.70;;
34876;SDS011;21086;44.780;17.194;2023-12-20T03:31:17;138.32;;;65.32;;
34876;SDS011;21086;44.780;17.194;2023-12-20T03:33:44;144.68;;;66.93;;
34876;SDS011;21086;44.780;17.194;2023-12-20T03:36:11;131.65;;;63.97;;
34876;SDS011;21086;44.780;17.194;2023-12-20T03:38:38;125.28;;;62.95;;
34876;SDS011;21086;44.780;17.194;2023-12-20T03:41:06;138.88;;;67.32;;
34876;SDS011;21086;44.780;17.194;2023-12-20T03:43:33;122.07;;;56.97;;
34876;SDS011;21086;44.780;17.194;2023-12-20T03:46:00;116.43;;;58.90;;
34876;SDS011;21086;44.780;17.194;2023-12-20T03:48:33;132.38;;;63.88;;
34876;SDS011;21086;44.780;17.194;2023-12-20T03:51:00;122.65;;;57.17;;
34876;SDS011;21086;44.780;17.194;2023-12-20T03:53:27;110.97;;;52.15;;
34876;SDS011;21086;44.780;17.194;2023-12-20T03:55:54;107.20;;;52.65;;
34876;SDS011;21086;44.780;17.194;2023-12-20T03:58:21;112.72;;;55.78;;
34876;SDS011;21086;44.780;17.194;2023-12-20T04:00:48;120.50;;;54.40;;
34876;SDS011;21086;44.780;17.194;2023-12-20T04:03:15;121.82;;;58.17;;
34876;SDS011;21086;44.780;17.194;2023-12-20T04:05:42;115.30;;;56.28;;
34876;SDS011;21086;44.780;17.194;2023-12-20T04:08:09;114.10;;;54.38;;
34876;SDS011;21086;44.780;17.194;2023-12-20T04:10:37;119.50;;;56.13;;
34876;SDS011;21086;44.780;17.194;2023-12-20T04:13:04;124.40;;;58.58;;
34876;SDS011;21086;44.780;17.194;2023-12-20T04:15:31;117.57;;;53.60;;
34876;SDS011;21086;44.780;17.194;2023-12-20T04:17:58;129.50;;;63.75;;
34876;SDS011;21086;44.780;17.194;2023-12-20T04:20:25;173.63;;;80.45;;
34876;SDS011;21086;44.780;17.194;2023-12-20T04:22:52;173.77;;;78.07;;
34876;SDS011;21086;44.780;17.194;2023-12-20T04:25:19;147.52;;;67.28;;
34876;SDS011;21086;44.780;17.194;2023-12-20T04:27:46;143.85;;;66.20;;
34876;SDS011;21086;44.780;17.194;2023-12-20T04:30:14;126.82;;;59.30;;
34876;SDS011;21086;44.780;17.194;2023-12-20T04:32:41;122.50;;;60.83;;
34876;SDS011;21086;44.780;17.194;2023-12-20T04:35:08;139.15;;;64.30;;
34876;SDS011;21086;44.780;17.194;2023-12-20T04:37:35;131.13;;;61.55;;
34876;SDS011;21086;44.780;17.194;2023-12-20T04:40:02;137.32;;;65.22;;
34876;SDS011;21086;44.780;17.194;2023-12-20T04:42:31;132.25;;;64.15;;
34876;SDS011;21086;44.780;17.194;2023-12-20T04:44:58;120.30;;;57.97;;
34876;SDS011;21086;44.780;17.194;2023-12-20T04:47:25;117.80;;;58.42;;
34876;SDS011;21086;44.780;17.194;2023-12-20T04:49:52;121.20;;;57.22;;
34876;SDS011;21086;44.780;17.194;2023-12-20T04:52:20;111.03;;;55.30;;
34876;SDS011;21086;44.780;17.194;2023-12-20T04:54:47;113.85;;;54.53;;
34876;SDS011;21086;44.780;17.194;2023-12-20T04:57:13;107.18;;;53.33;;
34876;SDS011;21086;44.780;17.194;2023-12-20T04:59:40;122.22;;;55.83;;
34876;SDS011;21086;44.780;17.194;2023-12-20T05:02:08;116.30;;;56.58;;
34876;SDS011;21086;44.780;17.194;2023-12-20T05:04:35;155.13;;;68.50;;
34876;SDS011;21086;44.780;17.194;2023-12-20T05:07:02;123.28;;;58.38;;
34876;SDS011;21086;44.780;17.194;2023-12-20T05:09:31;136.93;;;62.83;;
34876;SDS011;21086;44.780;17.194;2023-12-20T05:11:58;127.70;;;57.05;;
34876;SDS011;21086;44.780;17.194;2023-12-20T05:14:25;125.35;;;59.20;;
34876;SDS011;21086;44.780;17.194;2023-12-20T05:16:52;124.75;;;58.83;;
34876;SDS011;21086;44.780;17.194;2023-12-20T05:19:19;122.03;;;59.25;;
34876;SDS011;21086;44.780;17.194;2023-12-20T05:21:46;122.95;;;59.25;;
34876;SDS011;21086;44.780;17.194;2023-12-20T05:24:13;133.35;;;60.28;;
34876;SDS011;21086;44.780;17.194;2023-12-20T05:26:41;136.23;;;62.88;;
34876;SDS011;21086;44.780;17.194;2023-12-20T05:29:10;110.30;;;54.65;;
34876;SDS011;21086;44.780;17.194;2023-12-20T05:31:37;117.80;;;55.60;;
34876;SDS011;21086;44.780;17.194;2023-12-20T05:34:04;109.50;;;53.22;;
34876;SDS011;21086;44.780;17.194;2023-12-20T05:36:31;85.60;;;43.10;;
34876;SDS011;21086;44.780;17.194;2023-12-20T05:38:58;113.25;;;50.90;;
34876;SDS011;21086;44.780;17.194;2023-12-20T05:41:25;86.45;;;41.95;;
34876;SDS011;21086;44.780;17.194;2023-12-20T05:43:52;106.40;;;49.88;;
34876;SDS011;21086;44.780;17.194;2023-12-20T05:46:19;85.53;;;41.53;;
34876;SDS011;21086;44.780;17.194;2023-12-20T05:48:47;97.78;;;48.00;;
34876;SDS011;21086;44.780;17.194;2023-12-20T05:51:15;126.40;;;60.97;;
34876;SDS011;21086;44.780;17.194;2023-12-20T05:53:42;100.38;;;50.75;;
34876;SDS011;21086;44.780;17.194;2023-12-20T05:56:10;102.68;;;49.63;;
34876;SDS011;21086;44.780;17.194;2023-12-20T05:58:38;107.03;;;49.83;;
34876;SDS011;21086;44.780;17.194;2023-12-20T06:01:06;97.90;;;48.17;;
34876;SDS011;21086;44.780;17.194;2023-12-20T06:03:35;115.40;;;52.70;;
34876;SDS011;21086;44.780;17.194;2023-12-20T06:06:07;107.40;;;52.70;;
34876;SDS011;21086;44.780;17.194;2023-12-20T06:08:42;116.95;;;56.33;;
34876;SDS011;21086;44.780;17.194;2023-12-20T06:11:10;103.80;;;50.03;;
34876;SDS011;21086;44.780;17.194;2023-12-20T06:13:37;113.65;;;53.90;;
34876;SDS011;21086;44.780;17.194;2023-12-20T06:16:05;109.90;;;54.53;;
34876;SDS011;21086;44.780;17.194;2023-12-20T06:18:35;112.22;;;53.72;;
34876;SDS011;21086;44.780;17.194;2023-12-20T06:21:03;112.53;;;53.85;;
34876;SDS011;21086;44.780;17.194;2023-12-20T06:23:31;116.57;;;57.75;;
34876;SDS011;21086;44.780;17.194;2023-12-20T06:25:58;140.35;;;70.15;;
34876;SDS011;21086;44.780;17.194;2023-12-20T06:28:25;153.07;;;73.70;;
34876;SDS011;21086;44.780;17.194;2023-12-20T06:30:52;153.82;;;75.28;;
34876;SDS011;21086;44.780;17.194;2023-12-20T06:33:21;162.82;;;78.93;;
34876;SDS011;21086;44.780;17.194;2023-12-20T06:35:49;132.10;;;65.93;;
34876;SDS011;21086;44.780;17.194;2023-12-20T06:38:17;152.80;;;68.70;;
34876;SDS011;21086;44.780;17.194;2023-12-20T06:40:44;146.52;;;62.28;;
34876;SDS011;21086;44.780;17.194;2023-12-20T06:43:12;112.35;;;52.42;;
34876;SDS011;21086;44.780;17.194;2023-12-20T06:45:57;104.40;;;51.80;;
34876;SDS011;21086;44.780;17.194;2023-12-20T06:48:24;109.18;;;52.42;;
34876;SDS011;21086;44.780;17.194;2023-12-20T06:50:52;103.53;;;49.15;;
34876;SDS011;21086;44.780;17.194;2023-12-20T06:53:19;103.85;;;48.83;;
34876;SDS011;21086;44.780;17.194;2023-12-20T06:55:45;98.55;;;48.95;;
34876;SDS011;21086;44.780;17.194;2023-12-20T06:58:14;95.15;;;46.78;;
34876;SDS011;21086;44.780;17.194;2023-12-20T07:00:42;107.07;;;54.75;;
34876;SDS011;21086;44.780;17.194;2023-12-20T07:03:10;107.55;;;54.38;;
34876;SDS011;21086;44.780;17.194;2023-12-20T07:05:37;124.80;;;61.25;;
34876;SDS011;21086;44.780;17.194;2023-12-20T07:08:04;125.28;;;64.70;;
34876;SDS011;21086;44.780;17.194;2023-12-20T07:10:31;142.85;;;72.47;;
34876;SDS011;21086;44.780;17.194;2023-12-20T07:12:58;148.20;;;75.50;;
34876;SDS011;21086;44.780;17.194;2023-12-20T07:15:25;140.15;;;71.00;;
34876;SDS011;21086;44.780;17.194;2023-12-20T07:17:53;138.50;;;71.20;;
34876;SDS011;21086;44.780;17.194;2023-12-20T07:20:20;145.40;;;78.82;;
34876;SDS011;21086;44.780;17.194;2023-12-20T07:22:47;138.15;;;70.57;;
34876;SDS011;21086;44.780;17.194;2023-12-20T07:25:14;119.30;;;62.50;;
34876;SDS011;21086;44.780;17.194;2023-12-20T07:27:41;111.75;;;60.38;;
34876;SDS011;21086;44.780;17.194;2023-12-20T07:30:11;91.70;;;51.92;;
34876;SDS011;21086;44.780;17.194;2023-12-20T07:32:38;79.30;;;44.35;;
34876;SDS011;21086;44.780;17.194;2023-12-20T07:35:05;70.03;;;37.70;;
34876;SDS011;21086;44.780;17.194;2023-12-20T07:37:32;72.72;;;39.40;;
34876;SDS011;21086;44.780;17.194;2023-12-20T07:39:59;80.65;;;42.28;;
34876;SDS011;21086;44.780;17.194;2023-12-20T07:42:26;86.25;;;44.00;;
34876;SDS011;21086;44.780;17.194;2023-12-20T07:44:53;82.68;;;40.75;;
34876;SDS011;21086;44.780;17.194;2023-12-20T07:47:21;88.95;;;42.60;;
34876;SDS011;21086;44.780;17.194;2023-12-20T07:49:48;82.00;;;42.00;;
34876;SDS011;21086;44.780;17.194;2023-12-20T07:52:18;69.68;;;39.45;;
34876;SDS011;21086;44.780;17.194;2023-12-20T07:54:45;72.78;;;40.28;;
34876;SDS011;21086;44.780;17.194;2023-12-20T07:57:12;72.55;;;41.28;;
34876;SDS011;21086;44.780;17.194;2023-12-20T07:59:39;73.50;;;38.88;;
34876;SDS011;21086;44.780;17.194;2023-12-20T08:02:06;76.15;;;40.88;;
34876;SDS011;21086;44.780;17.194;2023-12-20T08:04:33;88.00;;;44.65;;
34876;SDS011;21086;44.780;17.194;2023-12-20T08:07:00;99.35;;;53.40;;
34876;SDS011;21086;44.780;17.194;2023-12-20T08:09:28;84.15;;;47.65;;
34876;SDS011;21086;44.780;17.194;2023-12-20T08:11:55;98.18;;;53.75;;
34876;SDS011;21086;44.780;17.194;2023-12-20T08:14:22;94.63;;;51.72;;
34876;SDS011;21086;44.780;17.194;2023-12-20T08:16:49;109.68;;;64.05;;
34876;SDS011;21086;44.780;17.194;2023-12-20T08:19:16;107.13;;;61.78;;
34876;SDS011;21086;44.780;17.194;2023-12-20T08:21:43;91.60;;;50.75;;
34876;SDS011;21086;44.780;17.194;2023-12-20T08:24:10;98.88;;;52.35;;
34876;SDS011;21086;44.780;17.194;2023-12-20T08:26:37;103.28;;;56.13;;
34876;SDS011;21086;44.780;17.194;2023-12-20T08:29:04;98.90;;;55.50;;
34876;SDS011;21086;44.780;17.194;2023-12-20T08:31:31;111.18;;;59.17;;
34876;SDS011;21086;44.780;17.194;2023-12-20T08:33:58;113.45;;;61.97;;
34876;SDS011;21086;44.780;17.194;2023-12-20T08:36:25;156.13;;;77.65;;
34876;SDS011;21086;44.780;17.194;2023-12-20T08:38:52;142.00;;;77.55;;
34876;SDS011;21086;44.780;17.194;2023-12-20T08:41:19;116.50;;;61.50;;
34876;SDS011;21086;44.780;17.194;2023-12-20T08:43:47;106.10;;;58.95;;
34876;SDS011;21086;44.780;17.194;2023-12-20T08:46:14;103.15;;;56.95;;
34876;SDS011;21086;44.780;17.194;2023-12-20T08:48:41;102.50;;;56.17;;
34876;SDS011;21086;44.780;17.194;2023-12-20T08:51:10;97.57;;;52.78;;
34876;SDS011;21086;44.780;17.194;2023-12-20T08:53:37;99.43;;;53.00;;
34876;SDS011;21086;44.780;17.194;2023-12-20T08:56:04;106.32;;;57.17;;
34876;SDS011;21086;44.780;17.194;2023-12-20T08:58:31;121.32;;;60.83;;
34876;SDS011;21086;44.780;17.194;2023-12-20T09:01:00;114.28;;;60.28;;
34876;SDS011;21086;44.780;17.194;2023-12-20T09:03:27;166.50;;;87.50;;
34876;SDS011;21086;44.780;17.194;2023-12-20T09:05:53;115.22;;;62.92;;
34876;SDS011;21086;44.780;17.194;2023-12-20T09:08:20;110.28;;;60.33;;
34876;SDS011;21086;44.780;17.194;2023-12-20T09:10:48;112.43;;;65.28;;
34876;SDS011;21086;44.780;17.194;2023-12-20T09:13:15;129.15;;;71.95;;
34876;SDS011;21086;44.780;17.194;2023-12-20T09:15:42;127.10;;;67.57;;
34876;SDS011;21086;44.780;17.194;2023-12-20T09:18:09;128.75;;;69.55;;
34876;SDS011;21086;44.780;17.194;2023-12-20T09:20:36;120.75;;;71.80;;
34876;SDS011;21086;44.780;17.194;2023-12-20T09:23:06;131.25;;;74.75;;
34876;SDS011;21086;44.780;17.194;2023-12-20T09:25:33;116.43;;;67.97;;
34876;SDS011;21086;44.780;17.194;2023-12-20T09:28:00;121.60;;;69.13;;
34876;SDS011;21086;44.780;17.194;2023-12-20T09:30:27;121.47;;;68.20;;
34876;SDS011;21086;44.780;17.194;2023-12-20T09:32:55;121.70;;;66.97;;
34876;SDS011;21086;44.780;17.194;2023-12-20T09:35:22;114.88;;;67.60;;
34876;SDS011;21086;44.780;17.194;2023-12-20T09:37:50;119.70;;;65.72;;
34876;SDS011;21086;44.780;17.194;2023-12-20T09:40:20;117.72;;;69.07;;
34876;SDS011;21086;44.780;17.194;2023-12-20T09:45:17;88.03;;;52.92;;
34876;SDS011;21086;44.780;17.194;2023-12-20T09:47:51;100.80;;;56.25;;
34876;SDS011;21086;44.780;17.194;2023-12-20T09:50:19;90.78;;;53.10;;
34876;SDS011;21086;44.780;17.194;2023-12-20T09:52:51;86.50;;;52.50;;
34876;SDS011;21086;44.780;17.194;2023-12-20T09:55:19;84.63;;;52.08;;
34876;SDS011;21086;44.780;17.194;2023-12-20T09:57:48;92.13;;;56.47;;
34876;SDS011;21086;44.780;17.194;2023-12-20T10:00:16;93.88;;;57.55;;
34876;SDS011;21086;44.780;17.194;2023-12-20T10:02:50;99.63;;;59.65;;
34876;SDS011;21086;44.780;17.194;2023-12-20T10:05:20;113.40;;;66.65;;
34876;SDS011;21086;44.780;17.194;2023-12-20T10:07:57;117.13;;;64.60;;
34876;SDS011;21086;44.780;17.194;2023-12-20T10:10:25;114.80;;;60.78;;
34876;SDS011;21086;44.780;17.194;2023-12-20T10:13:09;104.63;;;58.40;;
34876;SDS011;21086;44.780;17.194;2023-12-20T10:15:37;109.57;;;61.08;;
34876;SDS011;21086;44.780;17.194;2023-12-20T10:18:05;109.10;;;64.72;;
34876;SDS011;21086;44.780;17.194;2023-12-20T10:20:33;104.28;;;61.17;;
34876;SDS011;21086;44.780;17.194;2023-12-20T10:23:00;89.93;;;55.25;;
34876;SDS011;21086;44.780;17.194;2023-12-20T10:25:28;90.43;;;55.17;;
34876;SDS011;21086;44.780;17.194;2023-12-20T10:28:11;94.75;;;57.08;;
34876;SDS011;21086;44.780;17.194;2023-12-20T10:30:47;88.28;;;54.60;;
34876;SDS011;21086;44.780;17.194;2023-12-20T10:33:22;81.55;;;53.88;;
34876;SDS011;21086;44.780;17.194;2023-12-20T10:36:00;82.30;;;54.47;;
34876;SDS011;21086;44.780;17.194;2023-12-20T10:38:29;86.55;;;55.20;;
34876;SDS011;21086;44.780;17.194;2023-12-20T10:40:57;93.97;;;59.55;;
34876;SDS011;21086;44.780;17.194;2023-12-20T10:43:28;87.32;;;58.03;;
34876;SDS011;21086;44.780;17.194;2023-12-20T10:45:57;92.45;;;62.40;;
34876;SDS011;21086;44.780;17.194;2023-12-20T10:48:25;98.57;;;61.15;;
34876;SDS011;21086;44.780;17.194;2023-12-20T10:50:56;88.63;;;57.53;;
34876;SDS011;21086;44.780;17.194;2023-12-20T10:53:24;84.15;;;54.78;;
34876;SDS011;21086;44.780;17.194;2023-12-20T10:55:52;74.93;;;50.42;;
34876;SDS011;21086;44.780;17.194;2023-12-20T10:58:24;71.50;;;48.35;;
34876;SDS011;21086;44.780;17.194;2023-12-20T11:00:56;55.45;;;39.70;;
34876;SDS011;21086;44.780;17.194;2023-12-20T11:03:29;56.50;;;37.78;;
34876;SDS011;21086;44.780;17.194;2023-12-20T11:11:52;52.65;;;34.38;;
34876;SDS011;21086;44.780;17.194;2023-12-20T11:14:29;42.13;;;28.55;;
34876;SDS011;21086;44.780;17.194;2023-12-20T11:17:14;42.17;;;29.58;;
34876;SDS011;21086;44.780;17.194;2023-12-20T11:20:34;48.63;;;31.05;;
34876;SDS011;21086;44.780;17.194;2023-12-20T11:22:37;42.55;;;31.15;;
34876;SDS011;21086;44.780;17.194;2023-12-20T11:25:09;44.92;;;30.40;;
34876;SDS011;21086;44.780;17.194;2023-12-20T11:27:40;40.33;;;29.98;;
34876;SDS011;21086;44.780;17.194;2023-12-20T11:30:10;63.70;;;32.55;;
34876;SDS011;21086;44.780;17.194;2023-12-20T11:32:37;42.17;;;28.40;;
34876;SDS011;21086;44.780;17.194;2023-12-20T11:37:38;36.80;;;25.95;;
34876;SDS011;21086;44.780;17.194;2023-12-20T11:40:14;39.95;;;26.35;;
34876;SDS011;21086;44.780;17.194;2023-12-20T11:42:43;28.50;;;19.65;;
34876;SDS011;21086;44.780;17.194;2023-12-20T11:45:18;27.15;;;19.63;;
34876;SDS011;21086;44.780;17.194;2023-12-20T11:47:49;33.42;;;20.63;;
34876;SDS011;21086;44.780;17.194;2023-12-20T11:50:17;30.98;;;23.15;;
34876;SDS011;21086;44.780;17.194;2023-12-20T11:52:45;37.78;;;25.83;;
34876;SDS011;21086;44.780;17.194;2023-12-20T11:55:13;37.25;;;28.33;;
34876;SDS011;21086;44.780;17.194;2023-12-20T11:57:41;49.22;;;35.97;;
34876;SDS011;21086;44.780;17.194;2023-12-20T12:00:10;54.95;;;38.15;;
34876;SDS011;21086;44.780;17.194;2023-12-20T12:02:37;56.17;;;42.13;;
34876;SDS011;21086;44.780;17.194;2023-12-20T12:05:04;60.03;;;43.55;;
34876;SDS011;21086;44.780;17.194;2023-12-20T12:07:33;61.90;;;48.17;;
34876;SDS011;21086;44.780;17.194;2023-12-20T12:10:01;59.63;;;44.50;;
34876;SDS011;21086;44.780;17.194;2023-12-20T12:12:30;63.50;;;46.33;;
34876;SDS011;21086;44.780;17.194;2023-12-20T12:14:58;54.72;;;41.50;;
34876;SDS011;21086;44.780;17.194;2023-12-20T12:17:25;48.38;;;33.58;;
34876;SDS011;21086;44.780;17.194;2023-12-20T12:20:01;49.53;;;36.38;;
34876;SDS011;21086;44.780;17.194;2023-12-20T12:22:30;35.25;;;24.65;;
34876;SDS011;21086;44.780;17.194;2023-12-20T12:24:59;41.70;;;28.30;;
34876;SDS011;21086;44.780;17.194;2023-12-20T12:27:36;40.30;;;26.45;;
34876;SDS011;21086;44.780;17.194;2023-12-20T12:30:06;25.77;;;19.42;;
34876;SDS011;21086;44.780;17.194;2023-12-20T12:32:35;24.65;;;17.67;;
34876;SDS011;21086;44.780;17.194;2023-12-20T12:35:03;23.35;;;15.63;;
34876;SDS011;21086;44.780;17.194;2023-12-20T12:37:39;31.60;;;17.35;;
34876;SDS011;21086;44.780;17.194;2023-12-20T12:40:09;18.67;;;14.85;;
34876;SDS011;21086;44.780;17.194;2023-12-20T12:42:37;14.75;;;10.25;;
34876;SDS011;21086;44.780;17.194;2023-12-20T12:45:04;14.38;;;10.05;;
34876;SDS011;21086;44.780;17.194;2023-12-20T12:47:32;14.10;;;9.80;;
34876;SDS011;21086;44.780;17.194;2023-12-20T12:50:00;12.32;;;9.90;;
34876;SDS011;21086;44.780;17.194;2023-12-20T12:52:27;17.10;;;10.15;;
34876;SDS011;21086;44.780;17.194;2023-12-20T12:54:54;18.92;;;11.38;;
34876;SDS011;21086;44.780;17.194;2023-12-20T12:57:21;18.55;;;11.85;;
34876;SDS011;21086;44.780;17.194;2023-12-20T12:59:50;17.13;;;11.88;;
34876;SDS011;21086;44.780;17.194;2023-12-20T13:02:17;16.40;;;12.45;;
34876;SDS011;21086;44.780;17.194;2023-12-20T13:04:44;17.55;;;13.70;;
34876;SDS011;21086;44.780;17.194;2023-12-20T13:07:12;19.70;;;13.48;;
34876;SDS011;21086;44.780;17.194;2023-12-20T13:09:39;15.20;;;10.55;;
34876;SDS011;21086;44.780;17.194;2023-12-20T13:12:06;14.02;;;10.10;;
34876;SDS011;21086;44.780;17.194;2023-12-20T13:14:34;16.40;;;11.10;;
34876;SDS011;21086;44.780;17.194;2023-12-20T13:17:03;13.57;;;10.70;;
34876;SDS011;21086;44.780;17.194;2023-12-20T13:19:30;13.50;;;10.85;;
34876;SDS011;21086;44.780;17.194;2023-12-20T13:21:57;17.95;;;10.18;;
34876;SDS011;21086;44.780;17.194;2023-12-20T13:24:25;13.88;;;10.40;;
34876;SDS011;21086;44.780;17.194;2023-12-20T13:26:52;12.80;;;9.93;;
34876;SDS011;21086;44.780;17.194;2023-12-20T13:29:19;15.52;;;9.77;;
34876;SDS011;21086;44.780;17.194;2023-12-20T13:31:46;12.98;;;10.35;;
34876;SDS011;21086;44.780;17.194;2023-12-20T13:34:13;17.25;;;12.00;;
34876;SDS011;21086;44.780;17.194;2023-12-20T13:36:40;12.93;;;10.82;;
34876;SDS011;21086;44.780;17.194;2023-12-20T13:39:09;17.60;;;11.25;;
34876;SDS011;21086;44.780;17.194;2023-12-20T13:41:36;14.02;;;10.65;;
34876;SDS011;21086;44.780;17.194;2023-12-20T13:44:03;13.85;;;9.77;;
34876;SDS011;21086;44.780;17.194;2023-12-20T13:46:30;13.07;;;10.05;;
34876;SDS011;21086;44.780;17.194;2023-12-20T13:48:58;14.98;;;10.02;;
34876;SDS011;21086;44.780;17.194;2023-12-20T13:51:25;16.65;;;10.45;;
34876;SDS011;21086;44.780;17.194;2023-12-20T13:53:52;16.33;;;9.25;;
34876;SDS011;21086;44.780;17.194;2023-12-20T13:56:19;17.65;;;10.60;;
34876;SDS011;21086;44.780;17.194;2023-12-20T13:58:46;13.75;;;10.85;;
34876;SDS011;21086;44.780;17.194;2023-12-20T14:01:13;19.67;;;10.63;;
34876;SDS011;21086;44.780;17.194;2023-12-20T14:03:40;16.80;;;11.30;;
34876;SDS011;21086;44.780;17.194;2023-12-20T14:06:11;15.60;;;11.20;;
34876;SDS011;21086;44.780;17.194;2023-12-20T14:08:40;14.32;;;10.18;;
34876;SDS011;21086;44.780;17.194;2023-12-20T14:11:08;15.52;;;10.80;;
34876;SDS011;21086;44.780;17.194;2023-12-20T14:13:35;18.13;;;10.10;;
34876;SDS011;21086;44.780;17.194;2023-12-20T14:16:02;16.92;;;10.52;;
34876;SDS011;21086;44.780;17.194;2023-12-20T14:18:30;15.07;;;10.77;;